createdAt,value
2018-08-10T00:00:10.404Z,22.22
2018-08-10T00:02:41.152Z,22.15
2018-08-10T00:05:12.542Z,22.10
2018-08-10T00:07:43.500Z,22.15
2018-08-10T00:10:15.629Z,22.17
2018-08-10T00:12:46.229Z,22.13
2018-08-10T00:15:16.842Z,22.08
2018-08-10T00:17:47.507Z,22.02
2018-08-10T00:20:18.123Z,21.98
2018-08-10T00:22:48.668Z,21.98
2018-08-10T00:25:19.838Z,21.96
2018-08-10T00:27:50.337Z,22.00
2018-08-10T00:30:21.216Z,21.99
2018-08-10T00:32:52.551Z,21.94
2018-08-10T00:35:23.640Z,21.91
2018-08-10T00:37:54.327Z,21.93
2018-08-10T00:40:25.313Z,21.94
2018-08-10T00:42:55.976Z,21.88
2018-08-10T00:45:26.519Z,21.80
2018-08-10T00:47:57.312Z,21.78
2018-08-10T00:50:28.511Z,21.77
2018-08-10T00:52:58.970Z,21.78
2018-08-10T00:55:30.540Z,21.70
2018-08-10T00:58:01.052Z,21.49
2018-08-10T01:00:32.712Z,21.34
2018-08-10T01:03:03.942Z,21.27
2018-08-10T01:05:34.442Z,21.22
2018-08-10T01:08:05.188Z,21.24
2018-08-10T01:10:36.403Z,21.29
2018-08-10T01:13:07.774Z,21.21
2018-08-10T01:15:38.474Z,21.12
2018-08-10T01:18:09.040Z,21.08
2018-08-10T01:20:40.225Z,21.06
2018-08-10T01:23:11.790Z,21.02
2018-08-10T01:25:42.980Z,21.01
2018-08-10T01:28:14.022Z,21.01
2018-08-10T01:30:44.797Z,21.03
2018-08-10T01:33:15.312Z,21.06
2018-08-10T01:35:46.910Z,21.08
2018-08-10T01:38:17.823Z,21.12
2018-08-10T01:40:48.325Z,21.28
2018-08-10T01:43:18.826Z,21.22
2018-08-10T01:45:49.463Z,21.18
2018-08-10T01:48:20.069Z,21.15
2018-08-10T01:50:51.495Z,21.13
2018-08-10T01:53:21.965Z,21.07
2018-08-10T01:55:52.884Z,21.03
2018-08-10T01:58:23.602Z,20.93
2018-08-10T02:00:54.097Z,20.90
2018-08-10T02:03:24.642Z,20.98
2018-08-10T02:05:56.143Z,21.04
2018-08-10T02:08:27.017Z,21.12
2018-08-10T02:10:57.938Z,21.09
2018-08-10T02:13:28.532Z,21.10
2018-08-10T02:15:59.053Z,21.16
2018-08-10T02:18:29.902Z,21.12
2018-08-10T02:21:01.401Z,21.15
2018-08-10T02:23:31.862Z,21.19
2018-08-10T02:26:02.481Z,21.10
2018-08-10T02:28:33.029Z,21.03
2018-08-10T02:31:03.511Z,20.97
2018-08-10T02:33:33.989Z,20.81
2018-08-10T02:36:04.492Z,20.65
2018-08-10T02:38:35.623Z,20.59
2018-08-10T02:41:06.199Z,20.54
2018-08-10T02:43:36.782Z,20.59
2018-08-10T02:46:07.845Z,20.47
2018-08-10T02:48:38.480Z,20.41
2018-08-10T02:51:08.966Z,20.41
2018-08-10T02:53:39.297Z,20.36
2018-08-10T02:56:09.667Z,20.28
2018-08-10T02:58:41.432Z,20.24
2018-08-10T03:01:12.075Z,20.20
2018-08-10T03:03:43.252Z,20.16
2018-08-10T03:06:13.935Z,20.12
2018-08-10T03:08:44.614Z,20.12
2018-08-10T03:11:15.253Z,20.12
2018-08-10T03:13:46.037Z,20.12
2018-08-10T03:16:16.674Z,20.14
2018-08-10T03:18:47.288Z,20.15
2018-08-10T03:21:17.965Z,20.14
2018-08-10T03:23:48.410Z,20.22
2018-08-10T03:26:19.012Z,20.19
2018-08-10T03:28:49.596Z,20.09
2018-08-10T03:31:20.203Z,19.99
2018-08-10T03:33:50.944Z,19.92
2018-08-10T03:36:21.322Z,19.88
2018-08-10T03:38:51.905Z,19.83
2018-08-10T03:41:22.663Z,19.82
2018-08-10T03:43:53.422Z,19.80
2018-08-10T03:46:24.034Z,19.78
2018-08-10T03:48:55.296Z,19.71
2018-08-10T03:51:25.882Z,19.61
2018-08-10T03:53:56.419Z,19.51
2018-08-10T03:56:27.346Z,19.45
2018-08-10T03:58:58.047Z,19.43
2018-08-10T04:01:29.129Z,19.40
2018-08-10T04:03:59.604Z,19.37
2018-08-10T04:06:30.868Z,19.33
2018-08-10T04:09:01.763Z,19.30
2018-08-10T04:11:32.467Z,19.28
2018-08-10T04:14:03.138Z,19.31
2018-08-10T04:16:33.690Z,19.35
2018-08-10T04:19:04.112Z,19.41
2018-08-10T04:21:35.384Z,19.43
2018-08-10T04:24:06.594Z,19.48
2018-08-10T04:26:37.190Z,19.56
2018-08-10T04:29:07.835Z,19.61
2018-08-10T04:31:38.542Z,19.61
2018-08-10T04:34:09.030Z,19.60
2018-08-10T04:36:39.791Z,19.64
2018-08-10T04:39:13.902Z,19.68
2018-08-10T04:41:45.568Z,19.74
2018-08-10T04:44:16.097Z,19.78
2018-08-10T04:46:46.455Z,19.80
2018-08-10T04:49:16.888Z,19.80
2018-08-10T04:51:48.200Z,19.77
2018-08-10T04:54:19.683Z,19.75
2018-08-10T04:56:50.214Z,19.74
2018-08-10T04:59:21.371Z,19.78
2018-08-10T05:01:51.962Z,19.85
2018-08-10T05:04:22.593Z,19.94
2018-08-10T05:06:53.061Z,20.07
2018-08-10T05:09:24.514Z,20.16
2018-08-10T05:11:55.144Z,20.17
2018-08-10T05:14:25.870Z,20.15
2018-08-10T05:16:56.458Z,20.15
2018-08-10T05:19:27.069Z,20.18
2018-08-10T05:21:58.898Z,20.31
2018-08-10T05:24:29.529Z,20.42
2018-08-10T05:27:00.087Z,20.52
2018-08-10T05:29:30.571Z,20.58
2018-08-10T05:32:01.202Z,20.66
2018-08-10T05:34:32.065Z,20.81
2018-08-10T05:37:02.652Z,21.01
2018-08-10T05:39:34.989Z,21.17
2018-08-10T05:42:05.803Z,21.41
2018-08-10T05:44:36.510Z,21.87
2018-08-10T05:47:07.148Z,22.45
2018-08-10T05:49:38.218Z,22.95
2018-08-10T05:52:09.793Z,23.44
2018-08-10T05:54:40.645Z,23.81
2018-08-10T05:57:11.314Z,24.22
2018-08-10T05:59:43.483Z,24.70
2018-08-10T06:02:15.872Z,25.03
2018-08-10T06:04:46.729Z,25.28
2018-08-10T06:07:17.455Z,25.69
2018-08-10T06:09:48.743Z,26.08
2018-08-10T06:12:19.618Z,26.19
2018-08-10T06:14:50.485Z,26.51
2018-08-10T06:17:21.716Z,26.61
2018-08-10T06:19:53.321Z,26.78
2018-08-10T06:22:24.390Z,26.83
2018-08-10T06:24:55.466Z,26.72
2018-08-10T06:27:26.272Z,27.06
2018-08-10T06:29:57.057Z,27.13
2018-08-10T06:32:28.124Z,27.16
2018-08-10T06:34:59.232Z,27.80
2018-08-10T06:37:31.652Z,28.11
2018-08-10T06:40:02.831Z,28.05
2018-08-10T06:42:33.466Z,28.55
2018-08-10T06:45:04.368Z,28.92
2018-08-10T06:47:35.887Z,29.34
2018-08-10T06:50:09.430Z,29.52
2018-08-10T06:52:40.083Z,29.53
2018-08-10T06:55:12.556Z,29.80
2018-08-10T06:57:44.378Z,29.81
2018-08-10T07:00:16.264Z,30.07
2018-08-10T07:02:47.157Z,30.32
2018-08-10T07:05:20.348Z,30.35
2018-08-10T07:07:53.595Z,30.85
2018-08-10T07:10:28.241Z,31.11
2018-08-10T07:12:59.432Z,31.44
2018-08-10T07:15:38.506Z,32.02
2018-08-10T07:18:45.364Z,31.86
2018-08-10T07:21:17.323Z,32.21
2018-08-10T07:23:50.602Z,32.47
2018-08-10T07:29:25.164Z,32.93
2018-08-10T07:31:57.024Z,33.11
2018-08-10T07:34:30.120Z,33.67
2018-08-10T07:37:02.063Z,34.00
2018-08-10T07:39:33.154Z,34.43
2018-08-10T07:42:08.084Z,34.79
2018-08-10T07:44:38.998Z,35.34
2018-08-10T07:47:10.715Z,35.55
2018-08-10T07:49:42.915Z,36.01
2018-08-10T07:52:14.346Z,35.88
2018-08-10T07:54:45.144Z,36.16
2018-08-10T07:57:16.037Z,35.92
2018-08-10T07:59:46.930Z,36.31
2018-08-10T08:02:17.858Z,36.30
2018-08-10T08:04:49.385Z,36.26
2018-08-10T08:07:22.356Z,36.85
2018-08-10T08:09:53.253Z,37.21
2018-08-10T08:12:24.016Z,37.87
2018-08-10T08:14:55.108Z,38.25
2018-08-10T08:17:26.493Z,38.07
2018-08-10T08:19:58.190Z,38.44
2018-08-10T08:22:30.268Z,38.05
2018-08-10T08:25:02.687Z,36.57
2018-08-10T08:27:33.566Z,36.14
2018-08-10T08:30:04.567Z,35.71
2018-08-10T08:32:35.661Z,35.86
2018-08-10T08:35:06.967Z,35.67
2018-08-10T08:37:37.781Z,35.99
2018-08-10T08:40:21.095Z,35.68
2018-08-10T08:42:52.458Z,35.69
2018-08-10T08:46:26.752Z,35.86
2018-08-10T08:48:57.361Z,37.11
2018-08-10T08:51:28.120Z,37.21
2018-08-10T08:54:15.733Z,37.98
2018-08-10T08:56:47.780Z,38.22
2018-08-10T08:59:18.410Z,38.63
2018-08-10T09:01:49.724Z,39.48
2018-08-10T09:05:23.229Z,39.85
2018-08-10T09:07:54.127Z,39.70
2018-08-10T09:10:24.913Z,40.02
2018-08-10T09:12:56.285Z,39.92
2018-08-10T09:15:27.170Z,38.65
2018-08-10T09:17:58.498Z,39.61
2018-08-10T09:20:31.544Z,39.58
2018-08-10T09:23:02.410Z,39.30
2018-08-10T09:25:33.608Z,40.83
2018-08-10T09:28:04.589Z,41.49
2018-08-10T09:30:35.765Z,42.08
2018-08-10T09:33:06.517Z,41.56
2018-08-10T09:35:38.169Z,40.06
2018-08-10T09:38:09.519Z,39.61
2018-08-10T09:40:42.768Z,39.70
2018-08-10T09:43:13.929Z,39.25
2018-08-10T09:45:44.869Z,39.30
2018-08-10T09:48:15.677Z,39.45
2018-08-10T09:50:46.432Z,39.44
2018-08-10T09:53:17.952Z,39.63
2018-08-10T09:55:49.742Z,40.58
2018-08-10T09:58:24.430Z,40.78
2018-08-10T10:00:55.393Z,40.98
2018-08-10T10:03:27.367Z,40.50
2018-08-10T10:06:00.017Z,40.12
2018-08-10T10:08:30.998Z,40.50
2018-08-10T10:11:02.785Z,40.69
2018-08-10T10:13:34.694Z,40.49
2018-08-10T10:16:05.648Z,39.76
2018-08-10T10:18:36.494Z,39.52
2018-08-10T10:21:07.483Z,40.52
2018-08-10T10:23:38.293Z,41.49
2018-08-10T10:26:09.175Z,41.60
2018-08-10T10:28:40.139Z,41.38
2018-08-10T10:31:11.764Z,40.78
2018-08-10T10:33:44.310Z,41.71
2018-08-10T10:36:15.512Z,41.49
2018-08-10T10:38:47.519Z,41.85
2018-08-10T10:41:19.976Z,42.32
2018-08-10T10:43:51.059Z,42.41
2018-08-10T10:46:21.854Z,42.21
2018-08-10T10:48:53.786Z,41.40
2018-08-10T10:51:34.637Z,41.05
2018-08-10T10:54:06.214Z,41.05
2018-08-10T10:56:37.362Z,41.06
2018-08-10T10:59:08.437Z,41.00
2018-08-10T11:01:39.762Z,41.39
2018-08-10T11:04:10.920Z,41.72
2018-08-10T11:06:42.112Z,41.34
2018-08-10T11:09:13.228Z,41.30
2018-08-10T11:11:46.741Z,41.64
2018-08-10T11:14:17.570Z,40.75
2018-08-10T11:16:49.005Z,40.92
2018-08-10T11:19:20.596Z,41.30
2018-08-10T11:21:52.331Z,41.51
2018-08-10T11:24:23.883Z,42.37
2018-08-10T11:26:55.227Z,43.12
2018-08-10T11:29:31.436Z,43.16
2018-08-10T11:32:03.761Z,43.68
2018-08-10T11:34:36.064Z,43.72
2018-08-10T11:37:07.460Z,43.61
2018-08-10T11:39:39.602Z,43.50
2018-08-10T11:42:12.750Z,43.27
2018-08-10T11:44:44.717Z,42.75
2018-08-10T11:47:17.415Z,43.14
2018-08-10T11:49:50.253Z,43.05
2018-08-10T11:52:20.902Z,42.70
2018-08-10T11:54:51.609Z,42.27
2018-08-10T11:57:22.777Z,41.82
2018-08-10T11:59:53.836Z,41.44
2018-08-10T12:02:25.633Z,40.82
2018-08-10T12:04:57.709Z,40.75
2018-08-10T12:07:30.116Z,41.27
2018-08-10T12:10:01.310Z,41.72
2018-08-10T12:12:32.162Z,42.00
2018-08-10T12:15:04.634Z,42.10
2018-08-10T12:17:35.900Z,42.02
2018-08-10T12:20:06.995Z,42.53
2018-08-10T12:22:37.948Z,42.96
2018-08-10T12:25:10.996Z,42.99
2018-08-10T12:27:42.537Z,42.99
2018-08-10T12:30:14.795Z,41.62
2018-08-10T12:32:46.151Z,40.21
2018-08-10T12:35:17.911Z,39.23
2018-08-10T12:37:48.811Z,38.36
2018-08-10T12:40:20.518Z,37.75
2018-08-10T12:42:51.353Z,36.91
2018-08-10T12:45:25.089Z,36.44
2018-08-10T12:47:55.920Z,35.90
2018-08-10T12:50:27.152Z,35.49
2018-08-10T12:52:57.825Z,35.31
2018-08-10T12:55:29.139Z,34.73
2018-08-10T12:58:00.480Z,34.46
2018-08-10T13:00:31.488Z,34.18
2018-08-10T13:03:02.375Z,34.20
2018-08-10T13:05:33.845Z,34.44
2018-08-10T13:08:05.461Z,34.98
2018-08-10T13:10:36.312Z,35.09
2018-08-10T13:13:08.624Z,35.10
2018-08-10T13:15:39.431Z,34.06
2018-08-10T13:18:11.338Z,32.56
2018-08-10T13:20:46.099Z,33.03
2018-08-10T13:23:19.523Z,33.93
2018-08-10T13:25:51.153Z,33.62
2018-08-10T13:28:22.281Z,32.58
2018-08-10T13:30:53.350Z,32.97
2018-08-10T13:33:25.067Z,33.71
2018-08-10T13:35:57.071Z,34.34
2018-08-10T13:38:31.341Z,34.72
2018-08-10T13:41:02.475Z,35.13
2018-08-10T13:43:34.314Z,35.52
2018-08-10T13:46:07.279Z,35.03
2018-08-10T13:48:39.349Z,35.81
2018-08-10T13:51:12.903Z,36.61
2018-08-10T13:53:44.889Z,37.90
2018-08-10T13:56:16.277Z,36.18
2018-08-10T13:58:48.427Z,36.81
2018-08-10T14:01:19.680Z,37.67
2018-08-10T14:03:52.061Z,38.44
2018-08-10T14:06:25.611Z,39.32
2018-08-10T14:08:57.408Z,39.48
2018-08-10T14:11:29.771Z,39.70
2018-08-10T14:14:01.375Z,39.09
2018-08-10T14:16:32.864Z,38.18
2018-08-10T14:19:03.619Z,37.68
2018-08-10T14:21:35.580Z,37.74
2018-08-10T14:24:08.679Z,37.67
2018-08-10T14:26:39.519Z,37.72
2018-08-10T14:29:11.074Z,37.52
2018-08-10T14:31:41.927Z,37.25
2018-08-10T14:34:13.209Z,37.06
2018-08-10T14:36:45.215Z,36.86
2018-08-10T14:39:19.025Z,36.92
2018-08-10T14:41:50.036Z,37.09
2018-08-10T14:44:21.394Z,37.18
2018-08-10T14:46:53.698Z,37.56
2018-08-10T14:49:25.173Z,37.87
2018-08-10T14:52:01.629Z,37.98
2018-08-10T14:54:36.214Z,38.30
2018-08-10T14:57:08.791Z,38.49
2018-08-10T14:59:42.328Z,38.52
2018-08-10T15:02:13.611Z,38.37
2018-08-10T15:04:46.764Z,38.38
2018-08-10T15:07:19.011Z,38.06
2018-08-10T15:09:51.018Z,37.90
2018-08-10T15:12:22.294Z,37.83
2018-08-10T15:14:53.432Z,37.87
2018-08-10T15:17:24.992Z,37.42
2018-08-10T15:19:57.993Z,37.06
2018-08-10T15:22:29.175Z,36.88
2018-08-10T15:25:00.480Z,36.83
2018-08-10T15:27:31.385Z,36.93
2018-08-10T15:30:03.758Z,36.73
2018-08-10T15:32:34.455Z,36.75
2018-08-10T15:35:06.368Z,36.91
2018-08-10T15:37:37.611Z,36.80
2018-08-10T15:40:11.280Z,36.90
2018-08-10T15:42:43.346Z,36.88
2018-08-10T15:45:15.441Z,36.72
2018-08-10T15:47:47.003Z,36.20
2018-08-10T15:50:19.116Z,36.16
2018-08-10T15:52:50.157Z,35.92
2018-08-10T15:55:21.229Z,35.79
2018-08-10T15:57:52.323Z,35.74
2018-08-10T16:00:25.904Z,35.79
2018-08-10T16:02:57.441Z,35.77
2018-08-10T16:05:29.419Z,35.68
2018-08-10T16:08:02.098Z,35.60
2018-08-10T16:10:34.249Z,35.35
2018-08-10T16:13:05.637Z,34.83
2018-08-10T16:15:38.513Z,34.73
2018-08-10T16:18:10.513Z,34.75
2018-08-10T16:20:42.067Z,34.67
2018-08-10T16:23:13.318Z,34.67
2018-08-10T16:25:45.054Z,34.75
2018-08-10T16:28:17.784Z,34.68
2018-08-10T16:30:48.864Z,34.67
2018-08-10T16:33:21.285Z,34.60
2018-08-10T16:35:51.859Z,34.46
2018-08-10T16:38:22.935Z,34.43
2018-08-10T16:40:54.338Z,34.43
2018-08-10T16:43:26.183Z,34.25
2018-08-10T16:45:57.028Z,34.15
2018-08-10T16:48:27.720Z,34.07
2018-08-10T16:50:58.331Z,33.85
2018-08-10T16:53:28.978Z,33.87
2018-08-10T16:56:01.157Z,33.81
2018-08-10T16:58:33.205Z,33.62
2018-08-10T17:01:04.604Z,33.50
2018-08-10T17:03:35.228Z,33.37
2018-08-10T17:06:06.284Z,33.23
2018-08-10T17:08:36.998Z,33.20
2018-08-10T17:11:07.827Z,33.13
2018-08-10T17:13:39.399Z,32.99
2018-08-10T17:16:16.558Z,32.71
2018-08-10T17:18:48.415Z,32.58
2018-08-10T17:21:19.971Z,32.44
2018-08-10T17:23:51.663Z,32.31
2018-08-10T17:26:22.656Z,32.12
2018-08-10T17:28:54.100Z,31.99
2018-08-10T17:31:25.933Z,31.80
2018-08-10T17:33:57.377Z,31.61
2018-08-10T17:36:29.700Z,31.53
2018-08-10T17:39:00.397Z,31.41
2018-08-10T17:41:31.455Z,31.33
2018-08-10T17:44:02.970Z,31.26
2018-08-10T17:46:34.775Z,31.13
2018-08-10T17:49:06.211Z,30.93
2018-08-10T17:51:36.907Z,30.81
2018-08-10T17:54:08.443Z,30.67
2018-08-10T17:56:39.849Z,30.57
2018-08-10T17:59:10.983Z,30.45
2018-08-10T18:01:41.929Z,30.35
2018-08-10T18:04:13.132Z,30.30
2018-08-10T18:06:44.269Z,30.20
2018-08-10T18:09:15.607Z,30.13
2018-08-10T18:11:47.194Z,30.08
2018-08-10T18:14:19.562Z,30.00
2018-08-10T18:16:50.942Z,29.90
2018-08-10T18:19:22.704Z,29.80
2018-08-10T18:21:53.668Z,29.70
2018-08-10T18:24:25.698Z,29.61
2018-08-10T18:26:57.230Z,29.52
2018-08-10T18:29:28.184Z,29.45
2018-08-10T18:32:00.580Z,29.25
2018-08-10T18:34:31.462Z,29.12
2018-08-10T18:37:02.329Z,29.01
2018-08-10T18:39:34.014Z,28.90
2018-08-10T18:42:06.220Z,28.78
2018-08-10T18:44:38.029Z,28.66
2018-08-10T18:47:10.453Z,28.53
2018-08-10T18:49:42.381Z,28.42
2018-08-10T18:52:14.186Z,28.24
2018-08-10T18:54:45.672Z,28.08
2018-08-10T18:57:17.790Z,27.83
2018-08-10T18:59:49.536Z,27.67
2018-08-10T19:02:22.307Z,27.53
2018-08-10T19:04:54.877Z,27.39
2018-08-10T19:07:26.326Z,27.12
2018-08-10T19:10:00.353Z,26.88
2018-08-10T19:12:34.487Z,26.65
2018-08-10T19:15:07.231Z,26.48
2018-08-10T19:17:40.179Z,26.38
2018-08-10T19:20:13.387Z,26.31
2018-08-10T19:22:45.568Z,26.22
2018-08-10T19:25:17.826Z,26.23
2018-08-10T19:27:50.196Z,26.14
2018-08-10T19:30:24.710Z,26.16
2018-08-10T19:32:56.658Z,26.03
2018-08-10T19:35:28.841Z,25.84
2018-08-10T19:38:00.480Z,25.71
2018-08-10T19:40:32.320Z,25.68
2018-08-10T19:43:03.768Z,25.65
2018-08-10T19:45:35.758Z,25.69
2018-08-10T19:48:08.373Z,25.58
2018-08-10T19:50:41.665Z,25.47
2018-08-10T19:53:13.945Z,25.43
2018-08-10T19:55:46.318Z,25.44
2018-08-10T19:58:17.974Z,25.53
2018-08-10T20:00:49.654Z,25.50
2018-08-10T20:03:21.774Z,25.43
2018-08-10T20:05:53.527Z,25.36
2018-08-10T20:08:25.707Z,25.29
2018-08-10T20:10:57.666Z,25.11
2018-08-10T20:13:29.538Z,25.02
2018-08-10T20:16:01.623Z,24.88
2018-08-10T20:18:34.719Z,24.80
2018-08-10T20:21:10.942Z,24.78
2018-08-10T20:23:43.321Z,24.82
2018-08-10T20:26:15.668Z,24.82
2018-08-10T20:28:47.550Z,24.83
2018-08-10T20:31:20.013Z,24.70
2018-08-10T20:33:51.974Z,24.62
2018-08-10T20:36:26.404Z,24.54
2018-08-10T20:38:57.663Z,24.45
2018-08-10T20:41:29.369Z,24.27
2018-08-10T20:44:02.732Z,24.21
2018-08-10T20:46:34.488Z,24.19
2018-08-10T20:49:06.527Z,24.11
2018-08-10T20:51:39.345Z,24.13
2018-08-10T20:54:11.046Z,23.95
2018-08-10T20:56:42.831Z,23.88
2018-08-10T20:59:14.463Z,23.78
2018-08-10T21:01:46.297Z,23.69
2018-08-10T21:04:17.397Z,23.65
2018-08-10T21:06:48.512Z,23.57
2018-08-10T21:09:19.252Z,23.54
2018-08-10T21:11:50.206Z,23.54
2018-08-10T21:14:21.032Z,23.58
2018-08-10T21:16:51.745Z,23.46
2018-08-10T21:19:22.658Z,23.32
2018-08-10T21:21:53.430Z,23.17
2018-08-10T21:24:23.999Z,23.02
2018-08-10T21:26:56.652Z,22.98
2018-08-10T21:29:27.283Z,22.95
2018-08-10T21:31:57.847Z,22.94
2018-08-10T21:34:29.033Z,22.96
2018-08-10T21:37:00.295Z,23.00
2018-08-10T21:39:31.244Z,23.02
2018-08-10T21:42:01.818Z,22.98
2018-08-10T21:44:32.465Z,22.90
2018-08-10T21:47:03.193Z,22.91
2018-08-10T21:49:33.746Z,22.88
2018-08-10T21:52:05.408Z,22.86
2018-08-10T21:54:36.175Z,22.81
2018-08-10T21:57:06.886Z,22.79
2018-08-10T21:59:37.656Z,22.71
2018-08-10T22:02:11.550Z,22.64
2018-08-10T22:04:42.441Z,22.60
2018-08-10T22:07:13.489Z,22.60
2018-08-10T22:09:44.085Z,22.51
2018-08-10T22:12:18.953Z,22.33
2018-08-10T22:14:55.121Z,22.18
2018-08-10T22:17:31.219Z,21.96
2018-08-10T22:20:02.014Z,21.83
2018-08-10T22:22:32.643Z,21.78
2018-08-10T22:25:03.173Z,21.84
2018-08-10T22:27:34.279Z,21.86
2018-08-10T22:30:06.063Z,21.91
2018-08-10T22:32:36.768Z,21.90
2018-08-10T22:35:07.893Z,21.85
2018-08-10T22:37:38.744Z,21.89
2018-08-10T22:40:09.937Z,21.90
2018-08-10T22:42:40.627Z,21.88
2018-08-10T22:45:11.283Z,21.81
2018-08-10T22:47:41.844Z,21.63
2018-08-10T22:50:12.645Z,21.47
2018-08-10T22:52:43.393Z,21.42
2018-08-10T22:55:14.032Z,21.36
2018-08-10T22:57:45.316Z,21.32
2018-08-10T23:00:15.790Z,21.30
2018-08-10T23:02:46.883Z,21.31
2018-08-10T23:05:17.464Z,21.30
2018-08-10T23:07:48.467Z,21.24
2018-08-10T23:10:19.196Z,21.17
2018-08-10T23:12:49.931Z,21.13
2018-08-10T23:15:20.588Z,21.06
2018-08-10T23:17:51.312Z,21.00
2018-08-10T23:20:21.968Z,20.95
2018-08-10T23:22:53.691Z,20.86
2018-08-10T23:25:24.422Z,20.75
2018-08-10T23:27:55.002Z,20.72
2018-08-10T23:30:25.614Z,20.68
2018-08-10T23:32:56.124Z,20.70
2018-08-10T23:35:26.988Z,20.83
2018-08-10T23:37:57.738Z,20.91
2018-08-10T23:40:28.691Z,20.89
2018-08-10T23:42:59.142Z,20.84
2018-08-10T23:45:29.901Z,20.79
2018-08-10T23:48:00.590Z,20.75
2018-08-10T23:50:31.243Z,20.69
2018-08-10T23:53:02.346Z,20.68
2018-08-10T23:55:33.429Z,20.62
2018-08-10T23:58:04.777Z,20.51
